Acton, Massachusetts
Current Conditions -  °F | °C
As of 8:56 PM on Saturday 25 Oct 2014 (Local Time) from KBED Reporting Station
Overcast Overcast  
Wind Chill: 53°   Ceiling: 11000
Heat Index: 53°   Visibility: 10mi
Dew Point: 45°   Wind: 5mph
Humidity: 74%   Direction: 210°SSW
Pressure: 29.55"   Gusts: NA
Location:  42.49°N, 71.43°W
Report Text: KBED 260056Z 21004KT 10SM OVC110 12/07 A2955 RMK AO2 SLP019 T01170072
Loading
Personal Weather Stations






























Interactive Weather Map New forecast layout! Learn more

10-Day Weather Forecast

Advertisements
Track Severe Weather on mobile